Time;durP1;ratioP1;P1;durP2;ratioP2;P2;SDS_P1;SDS_P2;PMS_P1;PMS_P2;Temp;Humidity;BMP_temperature;BMP_pressure;BME280_temperature;BME280_humidity;BME280_pressure;Samples;Min_cycle;Max_cycle;Signal;HPM_P1;HPM_P2
2023/08/04 00:00:52;;;;;;;0.10;0.10;;;16.10;99.90;;;;;;5052588;28;20207;-95
2023/08/04 00:03:17;;;;;;;0.10;0.10;;;16.20;99.90;;;;;;5037162;28;20229;-94
2023/08/04 00:05:43;;;;;;;0.10;0.10;;;16.20;99.90;;;;;;5054363;28;20437;-95
2023/08/04 00:08:08;;;;;;;0.10;0.10;;;16.20;99.90;;;;;;5048346;28;20203;-96
2023/08/04 00:10:34;;;;;;;0.10;0.10;;;16.20;99.90;;;;;;5033937;28;20182;-96
2023/08/04 00:13:00;;;;;;;0.00;0.00;;;16.20;99.90;;;;;;5053389;28;20586;-96
2023/08/04 00:15:25;;;;;;;0.10;0.10;;;16.20;99.90;;;;;;5009197;28;20235;-96
2023/08/04 00:17:51;;;;;;;0.20;0.20;;;16.10;99.90;;;;;;5049778;28;20202;-95
2023/08/04 00:20:16;;;;;;;0.10;0.10;;;16.10;99.90;;;;;;5051929;28;20179;-96
2023/08/04 00:22:42;;;;;;;0.10;0.10;;;16.10;99.90;;;;;;5042422;28;20187;-96
2023/08/04 00:25:07;;;;;;;0.00;0.00;;;16.10;99.90;;;;;;5046947;28;20646;-96
2023/08/04 00:27:33;;;;;;;0.10;0.10;;;16.10;99.90;;;;;;5055191;28;20541;-96
2023/08/04 00:29:59;;;;;;;0.00;0.00;;;16.10;99.90;;;;;;5036828;28;20277;-96
2023/08/04 00:32:25;;;;;;;0.10;0.10;;;16.10;99.90;;;;;;5040669;28;20226;-95
2023/08/04 00:34:50;;;;;;;0.10;0.10;;;16.10;99.90;;;;;;5046590;28;20226;-96
2023/08/04 00:37:15;;;;;;;0.10;0.10;;;16.10;99.90;;;;;;5044742;28;20198;-96
2023/08/04 00:39:41;;;;;;;0.10;0.10;;;16.10;99.90;;;;;;5052763;28;20552;-96
2023/08/04 00:42:07;;;;;;;0.00;0.00;;;16.10;99.90;;;;;;5049955;28;20183;-96
2023/08/04 00:44:32;;;;;;;0.10;0.10;;;16.10;99.90;;;;;;5052566;28;20638;-93
2023/08/04 00:46:58;;;;;;;0.10;0.10;;;16.00;99.90;;;;;;5043996;28;20698;-94
2023/08/04 00:49:24;;;;;;;0.00;0.00;;;16.00;99.90;;;;;;5052362;28;20198;-95
2023/08/04 00:51:50;;;;;;;0.00;0.00;;;16.10;99.90;;;;;;5054093;28;20503;-96
2023/08/04 00:54:16;;;;;;;0.10;0.10;;;16.10;99.90;;;;;;5054743;28;20545;-96
2023/08/04 00:56:41;;;;;;;0.20;0.20;;;16.00;99.90;;;;;;5034506;28;20456;-95
2023/08/04 00:59:07;;;;;;;0.10;0.10;;;16.10;99.90;;;;;;5032876;28;20218;-95
2023/08/04 01:01:32;;;;;;;0.10;0.10;;;16.10;99.90;;;;;;5051348;28;20221;-95
2023/08/04 01:03:58;;;;;;;0.00;0.00;;;16.10;99.90;;;;;;5053906;28;20186;-95
2023/08/04 01:06:48;;;;;;;0.00;0.00;;;16.10;99.90;;;;;;5035624;28;20642;-95
2023/08/04 01:09:35;;;;;;;0.00;0.00;;;16.00;99.90;;;;;;5049757;28;20437;-95
2023/08/04 01:12:42;;;;;;;0.00;0.00;;;16.00;99.90;;;;;;5033562;28;20564;-96
2023/08/04 01:15:10;;;;;;;0.20;0.20;;;16.00;99.90;;;;;;5051829;28;20994;-95
2023/08/04 01:17:36;;;;;;;0.10;0.10;;;16.00;99.90;;;;;;5053392;28;20499;-94
2023/08/04 01:20:03;;;;;;;0.20;0.20;;;16.00;99.90;;;;;;5034474;28;20883;-94
2023/08/04 01:22:28;;;;;;;0.10;0.10;;;16.00;99.90;;;;;;5060830;28;20193;-94
2023/08/04 01:24:54;;;;;;;0.10;0.10;;;16.00;99.90;;;;;;5043156;28;20442;-95
2023/08/04 01:27:29;;;;;;;0.00;0.00;;;15.90;99.90;;;;;;5039248;28;20183;-95
2023/08/04 01:29:58;;;;;;;0.10;0.10;;;15.90;99.90;;;;;;5042918;28;20436;-95
2023/08/04 01:32:23;;;;;;;0.20;0.20;;;16.00;99.90;;;;;;5034200;28;20825;-95
2023/08/04 01:34:49;;;;;;;0.10;0.10;;;15.90;99.90;;;;;;5034720;28;20433;-94
2023/08/04 01:37:15;;;;;;;0.10;0.10;;;15.90;99.90;;;;;;5052468;28;20182;-94
2023/08/04 01:39:41;;;;;;;0.10;0.10;;;15.90;99.90;;;;;;5043582;28;20175;-96
2023/08/04 01:42:07;;;;;;;0.20;0.20;;;15.90;99.90;;;;;;5052683;28;20498;-95
2023/08/04 01:44:33;;;;;;;0.10;0.10;;;15.90;99.90;;;;;;5051854;28;20433;-95
2023/08/04 01:46:59;;;;;;;0.20;0.20;;;15.90;99.90;;;;;;5041361;28;20187;-94
2023/08/04 01:49:24;;;;;;;0.20;0.20;;;15.90;99.90;;;;;;5031101;28;20187;-94
2023/08/04 01:51:50;;;;;;;0.10;0.10;;;15.80;99.90;;;;;;5048808;28;20212;-94
2023/08/04 01:54:15;;;;;;;0.10;0.10;;;15.90;99.90;;;;;;5051971;28;20596;-96
2023/08/04 01:56:41;;;;;;;0.10;0.10;;;15.90;99.90;;;;;;5035304;28;20186;-94
2023/08/04 01:59:06;;;;;;;0.07;0.07;;;15.80;99.90;;;;;;5034400;28;20174;-95
2023/08/04 02:01:32;;;;;;;0.10;0.10;;;15.80;99.90;;;;;;5033163;28;20635;-94
2023/08/04 02:03:57;;;;;;;0.10;0.10;;;15.80;99.90;;;;;;5049322;28;20528;-93
2023/08/04 02:06:23;;;;;;;0.10;0.10;;;15.80;99.90;;;;;;5033316;28;20208;-96
2023/08/04 02:08:48;;;;;;;0.07;0.07;;;15.80;99.90;;;;;;5036452;28;20174;-93
2023/08/04 02:11:14;;;;;;;0.10;0.10;;;15.80;99.90;;;;;;5054518;28;20206;-94
2023/08/04 02:13:39;;;;;;;0.10;0.10;;;15.70;99.90;;;;;;5047782;28;20518;-96
2023/08/04 02:16:05;;;;;;;0.10;0.10;;;15.70;99.90;;;;;;5047210;28;20222;-95
2023/08/04 02:18:30;;;;;;;0.10;0.10;;;15.60;99.90;;;;;;5037558;28;20670;-95
2023/08/04 02:20:56;;;;;;;0.00;0.00;;;15.50;99.90;;;;;;5049468;28;20214;-95
2023/08/04 02:23:21;;;;;;;0.10;0.10;;;15.40;99.90;;;;;;5049313;28;20202;-94
2023/08/04 02:25:47;;;;;;;0.10;0.10;;;15.40;99.90;;;;;;5052366;28;20693;-94
2023/08/04 02:28:12;;;;;;;0.00;0.00;;;15.40;99.90;;;;;;5042044;28;20761;-95
2023/08/04 02:30:38;;;;;;;0.10;0.10;;;15.40;99.90;;;;;;5048371;28;20193;-94
2023/08/04 02:33:03;;;;;;;0.10;0.10;;;15.40;99.90;;;;;;5052446;28;20174;-94
2023/08/04 02:35:29;;;;;;;0.10;0.10;;;15.40;99.90;;;;;;5051777;28;20650;-94
2023/08/04 02:37:54;;;;;;;0.10;0.10;;;15.40;99.90;;;;;;5048065;28;20312;-95
2023/08/04 02:40:20;;;;;;;0.10;0.10;;;15.40;99.90;;;;;;5052013;28;20190;-95
2023/08/04 02:42:45;;;;;;;0.10;0.10;;;15.40;99.90;;;;;;5035016;28;20646;-95
2023/08/04 02:45:11;;;;;;;0.00;0.00;;;15.40;99.90;;;;;;5044462;28;20179;-96
2023/08/04 02:47:36;;;;;;;0.10;0.10;;;15.40;99.90;;;;;;5041652;28;20213;-94
2023/08/04 02:50:04;;;;;;;0.10;0.10;;;15.40;99.90;;;;;;5047923;28;20214;-94
2023/08/04 02:52:29;;;;;;;0.10;0.10;;;15.40;99.90;;;;;;5048696;28;20587;-91
2023/08/04 02:54:55;;;;;;;0.10;0.10;;;15.30;99.90;;;;;;5052012;28;20517;-95
2023/08/04 02:57:20;;;;;;;0.10;0.10;;;15.30;99.90;;;;;;5030529;28;20184;-90
2023/08/04 02:59:46;;;;;;;0.10;0.10;;;15.20;99.90;;;;;;5047168;28;20222;-95
2023/08/04 03:02:11;;;;;;;0.10;0.10;;;15.20;99.90;;;;;;5048431;28;20190;-94
2023/08/04 03:04:39;;;;;;;0.10;0.10;;;15.20;99.90;;;;;;5048699;28;20590;-93
2023/08/04 03:07:05;;;;;;;0.10;0.07;;;15.30;99.90;;;;;;5046795;28;20175;-92
2023/08/04 03:09:30;;;;;;;0.10;0.10;;;15.20;99.90;;;;;;5030780;28;20434;-94
2023/08/04 03:11:56;;;;;;;0.10;0.10;;;15.20;99.90;;;;;;5050568;28;20488;-95
2023/08/04 03:14:21;;;;;;;0.10;0.10;;;15.20;99.90;;;;;;5051336;28;20222;-93
2023/08/04 03:16:47;;;;;;;0.20;0.20;;;15.20;99.90;;;;;;5050515;28;20646;-94
2023/08/04 03:19:13;;;;;;;0.10;0.10;;;15.10;99.90;;;;;;5047019;28;20172;-94
2023/08/04 03:21:38;;;;;;;0.10;0.10;;;15.10;99.90;;;;;;5026159;28;20510;-94
2023/08/04 03:24:04;;;;;;;0.10;0.10;;;15.00;99.90;;;;;;5043474;28;20208;-94
2023/08/04 03:26:30;;;;;;;0.10;0.10;;;15.00;99.90;;;;;;5055915;28;20191;-95
2023/08/04 03:28:55;;;;;;;0.20;0.20;;;15.10;99.90;;;;;;5048345;28;20265;-93
2023/08/04 03:31:21;;;;;;;0.10;0.10;;;15.10;99.90;;;;;;5054129;28;20687;-93
2023/08/04 03:33:47;;;;;;;0.10;0.10;;;15.10;99.90;;;;;;5055379;28;20680;-96
2023/08/04 03:36:13;;;;;;;0.10;0.10;;;15.10;99.90;;;;;;5054053;28;20441;-96
2023/08/04 03:38:38;;;;;;;0.10;0.10;;;15.10;99.90;;;;;;5042291;28;20210;-96
2023/08/04 03:41:04;;;;;;;0.10;0.10;;;15.10;99.90;;;;;;5054318;28;20270;-95
2023/08/04 03:43:29;;;;;;;0.10;0.10;;;15.10;99.90;;;;;;5056751;28;20199;-94
2023/08/04 03:45:55;;;;;;;0.10;0.10;;;15.10;99.90;;;;;;5048799;28;20205;-96
2023/08/04 03:48:20;;;;;;;0.10;0.10;;;15.10;99.90;;;;;;5042863;28;20313;-93
2023/08/04 03:50:45;;;;;;;0.10;0.10;;;15.10;99.90;;;;;;5042519;28;20686;-93
2023/08/04 03:53:11;;;;;;;0.10;0.10;;;15.20;99.90;;;;;;5055191;28;20187;-95
2023/08/04 03:55:36;;;;;;;0.10;0.10;;;15.20;99.90;;;;;;5052916;28;20210;-94
2023/08/04 03:58:02;;;;;;;0.10;0.10;;;15.10;99.90;;;;;;5054178;28;20673;-94
2023/08/04 04:00:27;;;;;;;0.10;0.10;;;15.20;99.90;;;;;;5052692;28;20187;-93
2023/08/04 04:02:53;;;;;;;0.10;0.10;;;15.20;99.90;;;;;;5047306;28;20183;-94
2023/08/04 04:05:19;;;;;;;0.10;0.10;;;15.10;99.90;;;;;;5029180;28;20639;-93
2023/08/04 04:07:44;;;;;;;0.10;0.10;;;15.20;99.90;;;;;;5043267;28;20281;-93
2023/08/04 04:10:10;;;;;;;0.10;0.10;;;15.20;99.90;;;;;;5036934;28;20195;-93
2023/08/04 04:12:35;;;;;;;0.10;0.10;;;15.10;99.90;;;;;;5054012;28;20697;-93
2023/08/04 04:15:04;;;;;;;0.10;0.10;;;15.10;99.90;;;;;;5054031;28;20258;-91
2023/08/04 04:17:29;;;;;;;0.10;0.10;;;15.30;99.90;;;;;;5040237;28;20270;-91
2023/08/04 04:19:55;;;;;;;0.10;0.10;;;15.20;99.90;;;;;;5042560;28;20513;-93
2023/08/04 04:22:20;;;;;;;0.10;0.10;;;15.20;99.90;;;;;;5039872;28;20199;-93
2023/08/04 04:24:46;;;;;;;0.10;0.10;;;15.20;99.90;;;;;;5052369;28;20201;-94
2023/08/04 04:27:12;;;;;;;0.10;0.10;;;15.20;99.90;;;;;;5052089;28;20534;-94
2023/08/04 04:29:37;;;;;;;0.10;0.10;;;15.20;99.90;;;;;;5051936;28;20948;-93
2023/08/04 04:32:03;;;;;;;0.10;0.10;;;15.30;99.90;;;;;;5052869;28;20222;-92
2023/08/04 04:34:29;;;;;;;0.10;0.10;;;15.30;99.90;;;;;;5044775;28;20197;-93
2023/08/04 04:37:00;;;;;;;0.20;0.20;;;15.30;99.90;;;;;;5052576;28;20457;-95
2023/08/04 04:39:28;;;;;;;0.10;0.10;;;15.30;99.90;;;;;;5049972;28;20659;-93
2023/08/04 04:41:53;;;;;;;0.10;0.10;;;15.40;99.90;;;;;;5054120;28;20456;-94
2023/08/04 04:44:19;;;;;;;0.10;0.10;;;15.40;99.90;;;;;;5032044;28;20434;-93
2023/08/04 04:46:45;;;;;;;0.10;0.10;;;15.40;99.90;;;;;;5046612;28;20195;-92
2023/08/04 04:49:10;;;;;;;0.10;0.10;;;15.40;99.90;;;;;;5049432;28;20237;-93
2023/08/04 04:51:36;;;;;;;0.10;0.10;;;15.40;99.90;;;;;;5053214;28;20272;-93
2023/08/04 04:54:01;;;;;;;0.10;0.10;;;15.40;99.90;;;;;;5051752;28;20177;-91
2023/08/04 04:56:27;;;;;;;0.20;0.20;;;15.40;99.90;;;;;;5060972;28;20195;-90
2023/08/04 04:58:52;;;;;;;0.10;0.10;;;15.40;99.90;;;;;;5058964;28;20229;-95
2023/08/04 05:01:18;;;;;;;0.10;0.10;;;15.50;99.90;;;;;;5041610;28;20250;-92
2023/08/04 05:03:43;;;;;;;0.10;0.10;;;15.50;99.90;;;;;;5026282;28;20179;-93
2023/08/04 05:06:09;;;;;;;0.10;0.10;;;15.50;99.90;;;;;;5027566;28;20618;-90
2023/08/04 05:08:34;;;;;;;0.10;0.10;;;15.50;99.90;;;;;;5030431;28;20283;-91
2023/08/04 05:11:00;;;;;;;0.10;0.10;;;15.60;99.90;;;;;;5047118;28;20240;-93
2023/08/04 05:13:25;;;;;;;0.10;0.10;;;15.60;99.90;;;;;;5039167;28;20202;-93
2023/08/04 05:15:51;;;;;;;0.10;0.10;;;15.60;99.90;;;;;;5028986;28;20207;-89
2023/08/04 05:18:16;;;;;;;0.10;0.10;;;15.70;99.90;;;;;;5017705;28;20199;-92
2023/08/04 05:20:47;;;;;;;0.10;0.10;;;15.70;99.90;;;;;;5017658;28;20184;-90
2023/08/04 05:23:12;;;;;;;0.10;0.10;;;15.70;99.90;;;;;;5033034;28;20190;-93
2023/08/04 05:25:39;;;;;;;0.10;0.10;;;15.80;99.90;;;;;;5041472;28;20951;-92
2023/08/04 05:28:18;;;;;;;0.10;0.10;;;15.80;99.90;;;;;;5031344;28;20511;-92
2023/08/04 05:30:43;;;;;;;0.10;0.10;;;15.80;99.90;;;;;;5034045;28;20449;-95
2023/08/04 05:33:09;;;;;;;0.10;0.10;;;15.80;99.90;;;;;;5026009;28;20454;-96
2023/08/04 05:35:37;;;;;;;0.10;0.10;;;15.80;99.90;;;;;;5030151;28;20605;-93
2023/08/04 05:38:03;;;;;;;0.10;0.10;;;15.80;99.90;;;;;;5035610;28;20194;-91
2023/08/04 05:40:28;;;;;;;0.10;0.10;;;15.80;99.90;;;;;;5043068;28;20442;-91
2023/08/04 05:42:54;;;;;;;0.10;0.10;;;15.90;99.90;;;;;;5031585;28;20190;-94
2023/08/04 05:45:19;;;;;;;0.10;0.10;;;15.90;99.90;;;;;;5042601;28;20953;-92
2023/08/04 05:47:45;;;;;;;0.10;0.10;;;15.90;99.90;;;;;;5030950;28;20270;-93
2023/08/04 05:50:10;;;;;;;0.10;0.10;;;15.90;99.90;;;;;;5030739;28;20552;-94
2023/08/04 05:52:36;;;;;;;0.10;0.10;;;16.00;99.90;;;;;;5011807;28;20725;-91
2023/08/04 05:55:02;;;;;;;0.10;0.10;;;16.00;99.90;;;;;;5034482;28;20207;-91
2023/08/04 05:57:27;;;;;;;0.00;0.00;;;16.00;99.90;;;;;;5021420;28;20453;-89
2023/08/04 05:59:53;;;;;;;0.10;0.10;;;16.10;99.90;;;;;;5030265;28;20629;-92
2023/08/04 06:02:18;;;;;;;0.07;0.07;;;16.10;99.90;;;;;;5006961;28;20279;-92
2023/08/04 06:04:44;;;;;;;0.10;0.10;;;16.10;99.90;;;;;;5029334;28;21929;-92
2023/08/04 06:07:10;;;;;;;0.10;0.10;;;16.10;99.90;;;;;;5026374;28;20234;-93
2023/08/04 06:09:35;;;;;;;0.00;0.00;;;16.10;99.90;;;;;;5037010;28;20187;-91
2023/08/04 06:12:01;;;;;;;0.10;0.10;;;16.10;99.90;;;;;;5028175;28;20227;-89
2023/08/04 06:14:26;;;;;;;0.10;0.10;;;16.10;99.90;;;;;;5040647;28;20226;-91
2023/08/04 06:16:52;;;;;;;0.00;0.00;;;16.20;99.90;;;;;;5028689;28;20186;-88
2023/08/04 06:19:17;;;;;;;0.00;0.00;;;16.30;99.90;;;;;;5031234;28;20311;-91
2023/08/04 06:21:43;;;;;;;0.10;0.10;;;16.40;99.90;;;;;;5064753;28;20588;-89
2023/08/04 06:24:09;;;;;;;0.10;0.10;;;16.50;99.90;;;;;;5041426;28;20187;-90
2023/08/04 06:26:34;;;;;;;0.10;0.10;;;16.60;99.90;;;;;;5040703;28;20442;-88
2023/08/04 06:29:00;;;;;;;0.20;0.20;;;16.60;99.90;;;;;;5029972;28;20191;-91
2023/08/04 06:31:25;;;;;;;0.10;0.10;;;16.70;99.90;;;;;;5046642;28;20233;-92
2023/08/04 06:33:51;;;;;;;0.10;0.10;;;16.80;99.90;;;;;;5048302;28;20195;-90
2023/08/04 06:36:16;;;;;;;0.00;0.00;;;16.90;99.90;;;;;;5043894;28;21024;-94
2023/08/04 06:38:42;;;;;;;0.10;0.10;;;16.90;99.90;;;;;;5048806;28;20773;-94
2023/08/04 06:41:07;;;;;;;0.10;0.10;;;17.00;99.90;;;;;;5031176;28;20190;-93
2023/08/04 06:43:33;;;;;;;0.10;0.10;;;17.10;99.90;;;;;;5042751;28;20656;-93
2023/08/04 06:45:58;;;;;;;0.10;0.00;;;17.00;99.90;;;;;;5050041;28;20198;-95
2023/08/04 06:48:24;;;;;;;0.00;0.00;;;16.90;99.90;;;;;;5051369;28;20282;-94
2023/08/04 06:50:49;;;;;;;0.10;0.00;;;17.00;99.90;;;;;;5055475;28;20189;-96
2023/08/04 06:53:15;;;;;;;0.10;0.00;;;17.10;99.90;;;;;;5055987;28;20209;-96
2023/08/04 06:55:40;;;;;;;0.10;0.00;;;17.00;99.90;;;;;;5056428;28;20810;-96
2023/08/04 06:58:06;;;;;;;0.10;0.10;;;17.00;99.90;;;;;;5052432;28;20186;-96
2023/08/04 07:00:31;;;;;;;0.10;0.10;;;17.00;99.90;;;;;;5040213;28;20931;-96
2023/08/04 07:02:57;;;;;;;0.10;0.10;;;17.10;99.90;;;;;;5044995;28;20187;-89
2023/08/04 07:05:22;;;;;;;0.00;0.00;;;17.20;99.90;;;;;;5051241;28;20195;-92
2023/08/04 07:07:51;;;;;;;0.10;0.10;;;17.20;99.90;;;;;;5049174;28;20179;-90
2023/08/04 07:10:16;;;;;;;0.10;0.10;;;17.20;99.90;;;;;;5044480;28;20183;-90
2023/08/04 07:12:42;;;;;;;0.10;0.10;;;17.20;99.90;;;;;;5033686;28;20483;-91
2023/08/04 07:15:08;;;;;;;0.20;0.20;;;17.30;99.90;;;;;;5050904;28;20223;-93
2023/08/04 07:17:33;;;;;;;0.10;0.10;;;17.40;99.90;;;;;;5055390;28;20503;-89
2023/08/04 07:19:59;;;;;;;0.10;0.10;;;17.50;99.90;;;;;;5049297;28;20436;-91
2023/08/04 07:22:24;;;;;;;0.10;0.10;;;17.50;99.90;;;;;;5064041;28;20179;-92
2023/08/04 07:24:53;;;;;;;0.10;0.10;;;17.60;99.90;;;;;;5049250;28;20214;-90
2023/08/04 07:27:19;;;;;;;0.10;0.10;;;17.50;99.90;;;;;;5045269;28;20183;-90
2023/08/04 07:29:44;;;;;;;0.10;0.10;;;17.70;99.90;;;;;;5051675;28;20448;-91
2023/08/04 07:32:10;;;;;;;0.00;0.00;;;17.90;99.90;;;;;;5052558;28;20229;-88
2023/08/04 07:34:35;;;;;;;0.10;0.10;;;18.10;99.90;;;;;;5048713;28;20700;-88
2023/08/04 07:37:01;;;;;;;0.00;0.00;;;18.30;99.90;;;;;;5043275;28;20187;-88
2023/08/04 07:39:26;;;;;;;0.10;0.10;;;18.20;99.90;;;;;;5048266;28;20721;-89
2023/08/04 07:41:52;;;;;;;0.00;0.00;;;18.10;99.90;;;;;;5046181;28;20198;-89
2023/08/04 07:44:17;;;;;;;0.00;0.00;;;18.10;99.90;;;;;;5052791;28;20638;-90
2023/08/04 07:46:43;;;;;;;0.00;0.00;;;18.00;99.90;;;;;;5051437;28;20272;-90
2023/08/04 07:49:08;;;;;;;0.00;0.00;;;18.00;99.90;;;;;;5051414;28;20175;-93
2023/08/04 07:51:34;;;;;;;0.00;0.00;;;18.00;99.90;;;;;;5051547;28;20233;-90
2023/08/04 07:53:59;;;;;;;0.00;0.00;;;18.00;99.90;;;;;;5050034;28;20637;-89
2023/08/04 07:56:32;;;;;;;0.00;0.00;;;17.90;99.90;;;;;;5044824;28;20204;-89
2023/08/04 07:58:57;;;;;;;0.00;0.00;;;18.00;99.90;;;;;;5047072;28;20183;-88
2023/08/04 08:01:23;;;;;;;0.00;0.00;;;18.00;99.90;;;;;;5041888;28;22361;-89
2023/08/04 08:03:48;;;;;;;0.00;0.00;;;18.10;99.90;;;;;;5044668;28;20277;-89
2023/08/04 08:06:13;;;;;;;0.00;0.00;;;18.20;99.90;;;;;;5047677;28;20551;-89
2023/08/04 08:08:39;;;;;;;0.00;0.00;;;18.20;99.90;;;;;;5049181;28;20199;-89
2023/08/04 08:11:09;;;;;;;0.00;0.00;;;18.30;99.90;;;;;;5039568;28;20304;-94
2023/08/04 08:13:35;;;;;;;0.10;0.10;;;18.30;99.90;;;;;;5053703;28;20205;-92
2023/08/04 08:16:13;;;;;;;0.00;0.00;;;18.20;99.90;;;;;;5053032;28;20440;-94
2023/08/04 08:18:39;;;;;;;0.00;0.00;;;18.30;99.90;;;;;;5042793;28;20190;-94
2023/08/04 08:21:07;;;;;;;0.10;0.10;;;18.30;99.90;;;;;;5051290;28;20439;-94
2023/08/04 08:23:32;;;;;;;0.00;0.00;;;18.40;99.90;;;;;;5038598;28;23722;-94
2023/08/04 08:25:58;;;;;;;0.00;0.00;;;18.30;99.90;;;;;;5043267;28;20436;-90
2023/08/04 08:28:24;;;;;;;0.00;0.00;;;18.40;99.90;;;;;;5046530;28;20244;-94
2023/08/04 08:30:49;;;;;;;0.00;0.00;;;18.40;99.90;;;;;;5049755;28;20179;-96
2023/08/04 08:33:15;;;;;;;0.00;0.00;;;18.60;99.90;;;;;;5050896;28;20289;-95
2023/08/04 08:35:40;;;;;;;0.00;0.00;;;18.50;99.90;;;;;;5051665;28;20552;-93
2023/08/04 08:38:06;;;;;;;0.00;0.00;;;18.40;99.90;;;;;;5054382;28;20222;-93
2023/08/04 08:40:31;;;;;;;0.10;0.10;;;18.40;99.90;;;;;;5051455;28;20194;-95
2023/08/04 08:42:58;;;;;;;0.00;0.00;;;18.30;99.90;;;;;;5053464;28;20566;-93
2023/08/04 08:45:28;;;;;;;0.00;0.00;;;18.20;99.90;;;;;;5043746;28;20195;-94
2023/08/04 08:47:54;;;;;;;0.10;0.10;;;18.10;99.90;;;;;;5061153;28;20454;-96
2023/08/04 08:50:23;;;;;;;0.10;0.10;;;18.30;99.90;;;;;;5061807;28;20491;-95
2023/08/04 08:52:55;;;;;;;0.00;0.00;;;18.50;99.90;;;;;;5054782;28;21047;-94
2023/08/04 08:55:21;;;;;;;0.00;0.00;;;18.70;99.90;;;;;;5053128;28;20479;-93
2023/08/04 08:57:47;;;;;;;0.00;0.00;;;19.00;99.90;;;;;;5046055;28;20453;-94
2023/08/04 09:00:13;;;;;;;0.00;0.00;;;19.30;99.90;;;;;;5050224;28;20186;-93
2023/08/04 09:02:39;;;;;;;0.00;0.00;;;19.50;99.90;;;;;;5044866;28;20234;-91
2023/08/04 09:05:05;;;;;;;0.00;0.00;;;19.30;99.90;;;;;;5044664;28;20559;-92
2023/08/04 09:07:31;;;;;;;0.00;0.00;;;19.40;99.90;;;;;;5036257;28;20250;-94
2023/08/04 09:09:56;;;;;;;0.00;0.00;;;19.30;99.90;;;;;;5043422;28;20488;-94
2023/08/04 09:12:25;;;;;;;0.00;0.00;;;19.00;99.90;;;;;;5047147;28;20259;-95
2023/08/04 09:14:54;;;;;;;0.00;0.00;;;18.90;99.90;;;;;;5056168;28;20222;-95
2023/08/04 09:17:33;;;;;;;0.00;0.00;;;18.80;99.90;;;;;;5045790;28;20937;-95
2023/08/04 09:20:01;;;;;;;0.00;0.00;;;18.80;99.90;;;;;;5047954;28;20439;-96
2023/08/04 09:22:27;;;;;;;0.00;0.00;;;18.80;99.90;;;;;;5049290;28;20529;-95
2023/08/04 09:25:00;;;;;;;0.00;0.00;;;18.70;99.90;;;;;;5038566;28;20488;-95
2023/08/04 09:27:30;;;;;;;0.00;0.00;;;18.70;99.90;;;;;;5056201;28;20404;-96
2023/08/04 09:30:02;;;;;;;0.00;0.00;;;18.80;99.90;;;;;;5062529;28;20522;-93
2023/08/04 09:32:28;;;;;;;0.00;0.00;;;18.80;99.90;;;;;;5063956;28;20859;-96
2023/08/04 09:35:01;;;;;;;0.00;0.00;;;18.80;99.90;;;;;;5074457;28;20425;-96
2023/08/04 09:37:27;;;;;;;0.00;0.00;;;18.90;99.90;;;;;;5061068;28;20433;-96
2023/08/04 09:39:53;;;;;;;0.10;0.10;;;18.90;99.90;;;;;;5036748;28;20499;-96
2023/08/04 09:42:21;;;;;;;0.00;0.00;;;19.00;99.90;;;;;;5051425;28;20452;-95
2023/08/04 09:44:53;;;;;;;0.00;0.00;;;19.00;99.90;;;;;;5057451;28;20215;-96
2023/08/04 09:47:22;;;;;;;0.00;0.00;;;19.00;99.90;;;;;;5044642;28;20932;-94
2023/08/04 09:49:48;;;;;;;0.00;0.00;;;19.00;99.90;;;;;;5046796;28;20452;-96
2023/08/04 09:52:22;;;;;;;0.00;0.00;;;19.10;99.90;;;;;;5053215;28;20535;-93
2023/08/04 09:54:48;;;;;;;0.00;0.00;;;19.10;99.90;;;;;;5047077;28;20465;-96
2023/08/04 09:57:15;;;;;;;0.00;0.00;;;19.10;99.90;;;;;;5048678;28;20440;-94
2023/08/04 09:59:41;;;;;;;0.00;0.00;;;19.30;99.90;;;;;;5051287;28;20445;-96
2023/08/04 10:02:08;;;;;;;0.00;0.00;;;19.40;99.90;;;;;;5054974;28;20465;-95
2023/08/04 10:04:34;;;;;;;0.00;0.00;;;19.70;99.90;;;;;;5053763;28;20187;-96
2023/08/04 10:06:59;;;;;;;0.00;0.00;;;19.80;99.90;;;;;;5050654;28;20442;-92
2023/08/04 10:09:26;;;;;;;0.00;0.00;;;19.50;99.90;;;;;;5054436;28;20201;-94
2023/08/04 10:11:52;;;;;;;0.00;0.00;;;19.30;99.90;;;;;;5050961;28;20300;-95
2023/08/04 10:14:18;;;;;;;0.10;0.10;;;19.30;99.90;;;;;;5038170;28;20490;-95
2023/08/04 10:16:44;;;;;;;0.00;0.00;;;19.40;99.90;;;;;;5048982;28;20461;-95
2023/08/04 10:19:11;;;;;;;0.00;0.00;;;19.30;99.90;;;;;;5059152;28;20249;-94
2023/08/04 10:21:39;;;;;;;0.00;0.00;;;19.30;99.90;;;;;;5062946;28;20535;-91
2023/08/04 10:24:06;;;;;;;0.00;0.00;;;19.40;99.90;;;;;;5064014;28;20438;-93
2023/08/04 10:26:34;;;;;;;0.00;0.00;;;19.50;99.90;;;;;;5058494;28;20475;-96
2023/08/04 10:29:08;;;;;;;0.00;0.00;;;19.70;99.90;;;;;;5055825;28;20437;-96
2023/08/04 10:31:52;;;;;;;0.00;0.00;;;20.40;99.90;;;;;;5060662;28;20476;-96
2023/08/04 10:34:25;;;;;;;0.00;0.00;;;20.70;99.90;;;;;;5040885;28;20457;-96
2023/08/04 10:37:11;;;;;;;0.00;0.00;;;21.50;99.90;;;;;;5054848;28;20561;-96
2023/08/04 10:39:57;;;;;;;0.00;0.00;;;22.70;99.90;;;;;;5061000;28;20441;-96
2023/08/04 10:42:24;;;;;;;0.00;0.00;;;23.00;99.90;;;;;;5067694;28;20481;-96
2023/08/04 10:44:51;;;;;;;0.00;0.00;;;22.70;99.90;;;;;;5072913;28;20453;-96
2023/08/04 10:47:29;;;;;;;0.00;0.00;;;22.80;99.90;;;;;;5063728;28;20881;-95
2023/08/04 10:49:56;;;;;;;0.00;0.00;;;22.90;99.90;;;;;;5036504;28;21046;-96
2023/08/04 10:52:23;;;;;;;0.00;0.00;;;22.40;99.90;;;;;;5056341;28;20567;-96
2023/08/04 10:54:49;;;;;;;0.00;0.00;;;21.90;99.90;;;;;;5039754;28;20449;-94
2023/08/04 10:57:19;;;;;;;0.00;0.00;;;21.70;99.90;;;;;;5047827;28;20448;-93
2023/08/04 10:59:44;;;;;;;0.00;0.00;;;22.10;99.90;;;;;;5050075;28;20437;-96
2023/08/04 11:02:10;;;;;;;0.00;0.00;;;22.30;99.90;;;;;;5041304;28;20450;-96
2023/08/04 11:04:41;;;;;;;0.00;0.00;;;22.20;99.90;;;;;;5068234;28;20177;-96
2023/08/04 11:07:07;;;;;;;0.00;0.00;;;21.70;99.90;;;;;;5042826;28;20191;-94
2023/08/04 11:09:32;;;;;;;0.00;0.00;;;21.60;99.90;;;;;;5045403;28;20470;-96
2023/08/04 11:11:59;;;;;;;0.00;0.00;;;21.80;99.90;;;;;;5059978;28;21050;-96
2023/08/04 11:14:24;;;;;;;0.00;0.00;;;21.80;99.90;;;;;;5071523;28;20236;-96
2023/08/04 11:16:50;;;;;;;0.00;0.00;;;21.80;99.90;;;;;;5044408;28;20462;-96
2023/08/04 11:19:20;;;;;;;0.00;0.00;;;22.10;99.90;;;;;;5056531;28;20195;-96
2023/08/04 11:21:46;;;;;;;0.00;0.00;;;22.80;99.90;;;;;;5074949;28;20416;-96
2023/08/04 11:24:11;;;;;;;0.00;0.00;;;23.10;99.90;;;;;;5055814;28;20944;-96
2023/08/04 11:26:37;;;;;;;0.00;0.00;;;23.00;99.90;;;;;;5044096;28;20277;-96
2023/08/04 11:29:04;;;;;;;0.00;0.00;;;23.30;99.90;;;;;;5038387;28;20186;-95
2023/08/04 11:34:00;;;;;;;0.00;0.00;;;23.00;99.90;;;;;;5055466;28;20506;-94
2023/08/04 11:36:27;;;;;;;0.00;0.00;;;22.70;99.90;;;;;;5047597;28;20997;-94
2023/08/04 11:38:53;;;;;;;0.00;0.00;;;22.30;99.90;;;;;;5052749;28;20645;-91
2023/08/04 11:41:21;;;;;;;0.00;0.00;;;22.70;99.90;;;;;;5053128;28;20488;-94
2023/08/04 11:43:46;;;;;;;0.00;0.00;;;23.50;99.90;;;;;;5059466;28;20195;-96
2023/08/04 11:46:12;;;;;;;0.00;0.00;;;24.40;99.90;;;;;;5040401;28;20936;-94
2023/08/04 11:48:38;;;;;;;0.00;0.00;;;24.80;99.90;;;;;;5062673;28;20177;-96
2023/08/04 11:51:08;;;;;;;0.00;0.00;;;25.10;99.90;;;;;;5060659;28;20195;-94
2023/08/04 11:53:34;;;;;;;0.00;0.00;;;24.70;99.90;;;;;;5057827;28;20440;-94
2023/08/04 11:56:02;;;;;;;0.00;0.00;;;25.20;99.90;;;;;;5061039;28;20508;-95
2023/08/04 11:58:41;;;;;;;0.00;0.00;;;25.00;99.90;;;;;;5062888;28;20471;-93
2023/08/04 12:01:33;;;;;;;0.00;0.00;;;25.40;99.90;;;;;;5057880;28;20437;-89
2023/08/04 12:03:58;;;;;;;0.00;0.00;;;25.30;99.90;;;;;;5043410;28;20446;-94
2023/08/04 12:06:24;;;;;;;0.00;0.00;;;24.50;99.90;;;;;;5055036;28;20444;-96
2023/08/04 12:08:54;;;;;;;0.00;0.00;;;23.50;99.90;;;;;;5056817;28;20209;-95
2023/08/04 12:11:21;;;;;;;0.00;0.00;;;22.90;99.90;;;;;;5067583;28;20445;-96
2023/08/04 12:13:47;;;;;;;0.00;0.00;;;23.30;99.90;;;;;;5061794;28;20441;-96
2023/08/04 12:16:13;;;;;;;0.00;0.00;;;23.20;99.90;;;;;;5062938;28;20441;-94
2023/08/04 12:18:39;;;;;;;0.00;0.00;;;23.30;99.90;;;;;;5061279;28;20453;-95
2023/08/04 12:21:05;;;;;;;0.00;0.00;;;24.80;99.90;;;;;;5059999;28;20443;-96
2023/08/04 12:23:31;;;;;;;0.00;0.00;;;24.80;99.90;;;;;;5043101;28;20199;-96
2023/08/04 12:25:56;;;;;;;0.00;0.00;;;24.10;99.90;;;;;;5062650;28;20178;-94
2023/08/04 12:28:22;;;;;;;0.00;0.00;;;23.40;99.90;;;;;;5045857;28;20206;-96
2023/08/04 12:48:45;;;;;;;0.00;0.00;;;27.00;99.90;;;;;;5095603;27;20597;-96
2023/08/04 12:51:10;;;;;;;0.00;0.00;;;26.60;99.90;;;;;;5074956;28;20444;-95
2023/08/04 12:53:36;;;;;;;0.00;0.00;;;26.90;99.90;;;;;;5062849;28;20190;-95
2023/08/04 12:56:01;;;;;;;0.00;0.00;;;25.90;99.90;;;;;;5056782;28;20235;-94
2023/08/04 12:58:27;;;;;;;0.00;0.00;;;24.90;99.90;;;;;;5073308;28;20198;-95
2023/08/04 13:00:52;;;;;;;0.00;0.00;;;24.70;99.90;;;;;;5071721;28;20289;-96
2023/08/04 13:03:18;;;;;;;0.00;0.00;;;24.00;99.90;;;;;;5078400;28;20191;-96
2023/08/04 13:05:43;;;;;;;0.00;0.00;;;24.10;99.90;;;;;;5062859;28;20610;-95